sensor_id;sensor_type;location;lat;lon;timestamp;temperature;humidity
25616;DHT22;13482;48.234;13.006;2023-08-12T00:00:40;20.20;60.30
25616;DHT22;13482;48.234;13.006;2023-08-12T00:03:08;20.20;60.40
25616;DHT22;13482;48.234;13.006;2023-08-12T00:05:35;20.20;60.50
25616;DHT22;13482;48.234;13.006;2023-08-12T00:08:04;20.10;60.90
25616;DHT22;13482;48.234;13.006;2023-08-12T00:10:32;20.10;60.90
25616;DHT22;13482;48.234;13.006;2023-08-12T00:12:59;20.00;60.60
25616;DHT22;13482;48.234;13.006;2023-08-12T00:15:26;20.00;60.60
25616;DHT22;13482;48.234;13.006;2023-08-12T00:17:54;20.00;60.60
25616;DHT22;13482;48.234;13.006;2023-08-12T00:20:21;19.90;60.50
25616;DHT22;13482;48.234;13.006;2023-08-12T00:22:49;19.90;60.40
25616;DHT22;13482;48.234;13.006;2023-08-12T00:25:16;19.90;60.70
25616;DHT22;13482;48.234;13.006;2023-08-12T00:27:44;19.80;60.70
25616;DHT22;13482;48.234;13.006;2023-08-12T00:30:11;19.80;61.00
25616;DHT22;13482;48.234;13.006;2023-08-12T00:32:38;19.80;60.90
25616;DHT22;13482;48.234;13.006;2023-08-12T00:35:08;19.70;60.80
25616;DHT22;13482;48.234;13.006;2023-08-12T00:37:35;19.70;60.90
25616;DHT22;13482;48.234;13.006;2023-08-12T00:40:03;19.70;60.90
25616;DHT22;13482;48.234;13.006;2023-08-12T00:42:31;19.60;60.70
25616;DHT22;13482;48.234;13.006;2023-08-12T00:44:59;19.60;60.90
25616;DHT22;13482;48.234;13.006;2023-08-12T00:47:27;19.60;61.00
25616;DHT22;13482;48.234;13.006;2023-08-12T00:49:56;19.50;60.80
25616;DHT22;13482;48.234;13.006;2023-08-12T00:52:26;19.50;61.00
25616;DHT22;13482;48.234;13.006;2023-08-12T00:54:54;19.40;61.20
25616;DHT22;13482;48.234;13.006;2023-08-12T00:57:22;19.40;61.50
25616;DHT22;13482;48.234;13.006;2023-08-12T00:59:49;19.40;61.60
25616;DHT22;13482;48.234;13.006;2023-08-12T01:02:17;19.30;61.50
25616;DHT22;13482;48.234;13.006;2023-08-12T01:04:44;19.30;61.50
25616;DHT22;13482;48.234;13.006;2023-08-12T01:07:12;19.30;61.50
25616;DHT22;13482;48.234;13.006;2023-08-12T01:09:40;19.20;61.80
25616;DHT22;13482;48.234;13.006;2023-08-12T01:12:32;19.20;61.90
25616;DHT22;13482;48.234;13.006;2023-08-12T01:15:08;19.20;63.10
25616;DHT22;13482;48.234;13.006;2023-08-12T01:17:41;19.20;62.10
25616;DHT22;13482;48.234;13.006;2023-08-12T01:20:11;19.10;62.20
25616;DHT22;13482;48.234;13.006;2023-08-12T01:22:44;19.10;62.30
25616;DHT22;13482;48.234;13.006;2023-08-12T01:25:13;19.10;62.50
25616;DHT22;13482;48.234;13.006;2023-08-12T01:27:41;19.00;62.90
25616;DHT22;13482;48.234;13.006;2023-08-12T01:30:09;19.00;62.10
25616;DHT22;13482;48.234;13.006;2023-08-12T01:33:01;19.00;62.30
25616;DHT22;13482;48.234;13.006;2023-08-12T01:35:39;18.90;63.50
25616;DHT22;13482;48.234;13.006;2023-08-12T01:38:09;18.90;62.60
25616;DHT22;13482;48.234;13.006;2023-08-12T01:40:39;18.80;62.90
25616;DHT22;13482;48.234;13.006;2023-08-12T01:43:09;18.80;63.00
25616;DHT22;13482;48.234;13.006;2023-08-12T01:45:37;18.70;62.90
25616;DHT22;13482;48.234;13.006;2023-08-12T01:48:06;18.70;62.80
25616;DHT22;13482;48.234;13.006;2023-08-12T01:50:33;18.70;62.80
25616;DHT22;13482;48.234;13.006;2023-08-12T01:53:01;18.60;62.50
25616;DHT22;13482;48.234;13.006;2023-08-12T01:55:28;18.60;62.50
25616;DHT22;13482;48.234;13.006;2023-08-12T01:57:56;18.60;62.50
25616;DHT22;13482;48.234;13.006;2023-08-12T02:00:24;18.50;62.70
25616;DHT22;13482;48.234;13.006;2023-08-12T02:02:51;18.50;62.80
25616;DHT22;13482;48.234;13.006;2023-08-12T02:05:18;18.50;63.10
25616;DHT22;13482;48.234;13.006;2023-08-12T02:07:46;18.50;63.30
25616;DHT22;13482;48.234;13.006;2023-08-12T02:10:13;18.50;63.50
25616;DHT22;13482;48.234;13.006;2023-08-12T02:12:41;18.40;63.40
25616;DHT22;13482;48.234;13.006;2023-08-12T02:15:09;18.40;63.30
25616;DHT22;13482;48.234;13.006;2023-08-12T02:17:37;18.40;63.50
25616;DHT22;13482;48.234;13.006;2023-08-12T02:20:06;18.40;63.70
25616;DHT22;13482;48.234;13.006;2023-08-12T02:22:34;18.40;63.50
25616;DHT22;13482;48.234;13.006;2023-08-12T02:25:02;18.30;63.60
25616;DHT22;13482;48.234;13.006;2023-08-12T02:27:30;18.30;63.80
25616;DHT22;13482;48.234;13.006;2023-08-12T02:29:57;18.30;63.90
25616;DHT22;13482;48.234;13.006;2023-08-12T02:32:25;18.30;64.00
25616;DHT22;13482;48.234;13.006;2023-08-12T02:34:52;18.20;64.00
25616;DHT22;13482;48.234;13.006;2023-08-12T02:37:20;18.20;63.80
25616;DHT22;13482;48.234;13.006;2023-08-12T02:39:47;18.10;63.90
25616;DHT22;13482;48.234;13.006;2023-08-12T02:42:15;18.10;64.10
25616;DHT22;13482;48.234;13.006;2023-08-12T02:44:42;18.10;63.90
25616;DHT22;13482;48.234;13.006;2023-08-12T02:47:10;18.00;63.70
25616;DHT22;13482;48.234;13.006;2023-08-12T02:49:37;18.00;63.80
25616;DHT22;13482;48.234;13.006;2023-08-12T02:52:05;18.00;64.10
25616;DHT22;13482;48.234;13.006;2023-08-12T02:54:32;17.90;64.10
25616;DHT22;13482;48.234;13.006;2023-08-12T02:57:00;17.90;64.10
25616;DHT22;13482;48.234;13.006;2023-08-12T02:59:27;17.90;63.80
25616;DHT22;13482;48.234;13.006;2023-08-12T03:01:57;17.80;63.70
25616;DHT22;13482;48.234;13.006;2023-08-12T03:04:24;17.80;63.80
25616;DHT22;13482;48.234;13.006;2023-08-12T03:06:52;17.80;64.00
25616;DHT22;13482;48.234;13.006;2023-08-12T03:09:19;17.80;64.00
25616;DHT22;13482;48.234;13.006;2023-08-12T03:11:47;17.70;63.80
25616;DHT22;13482;48.234;13.006;2023-08-12T03:14:14;17.70;63.80
25616;DHT22;13482;48.234;13.006;2023-08-12T03:16:42;17.70;64.00
25616;DHT22;13482;48.234;13.006;2023-08-12T03:19:09;17.60;63.80
25616;DHT22;13482;48.234;13.006;2023-08-12T03:21:37;17.60;63.80
25616;DHT22;13482;48.234;13.006;2023-08-12T03:24:05;17.60;63.60
25616;DHT22;13482;48.234;13.006;2023-08-12T03:26:32;17.60;63.80
25616;DHT22;13482;48.234;13.006;2023-08-12T03:29:00;17.50;64.10
25616;DHT22;13482;48.234;13.006;2023-08-12T03:31:27;17.50;64.00
25616;DHT22;13482;48.234;13.006;2023-08-12T03:33:55;17.50;63.80
25616;DHT22;13482;48.234;13.006;2023-08-12T03:36:22;17.50;63.80
25616;DHT22;13482;48.234;13.006;2023-08-12T03:38:49;17.40;63.80
25616;DHT22;13482;48.234;13.006;2023-08-12T03:41:17;17.40;63.60
25616;DHT22;13482;48.234;13.006;2023-08-12T03:43:44;17.40;63.70
25616;DHT22;13482;48.234;13.006;2023-08-12T03:46:12;17.40;63.60
25616;DHT22;13482;48.234;13.006;2023-08-12T03:48:39;17.30;64.00
25616;DHT22;13482;48.234;13.006;2023-08-12T03:51:06;17.30;64.40
25616;DHT22;13482;48.234;13.006;2023-08-12T03:53:34;17.30;64.40
25616;DHT22;13482;48.234;13.006;2023-08-12T03:56:01;17.20;64.30
25616;DHT22;13482;48.234;13.006;2023-08-12T03:58:29;17.20;64.20
25616;DHT22;13482;48.234;13.006;2023-08-12T04:00:56;17.20;64.30
25616;DHT22;13482;48.234;13.006;2023-08-12T04:03:24;17.10;64.50
25616;DHT22;13482;48.234;13.006;2023-08-12T04:05:53;17.10;64.50
25616;DHT22;13482;48.234;13.006;2023-08-12T04:08:22;17.10;64.50
25616;DHT22;13482;48.234;13.006;2023-08-12T04:10:51;17.10;64.60
25616;DHT22;13482;48.234;13.006;2023-08-12T04:13:19;17.10;64.80
25616;DHT22;13482;48.234;13.006;2023-08-12T04:15:50;17.10;64.80
25616;DHT22;13482;48.234;13.006;2023-08-12T04:18:20;17.10;65.10
25616;DHT22;13482;48.234;13.006;2023-08-12T04:20:53;17.10;64.70
25616;DHT22;13482;48.234;13.006;2023-08-12T04:23:20;17.10;65.10
25616;DHT22;13482;48.234;13.006;2023-08-12T04:25:48;17.10;64.90
25616;DHT22;13482;48.234;13.006;2023-08-12T04:28:16;17.10;65.10
25616;DHT22;13482;48.234;13.006;2023-08-12T04:30:48;17.10;65.10
25616;DHT22;13482;48.234;13.006;2023-08-12T04:33:19;17.10;65.50
25616;DHT22;13482;48.234;13.006;2023-08-12T04:35:47;17.10;65.40
25616;DHT22;13482;48.234;13.006;2023-08-12T04:38:14;17.10;65.50
25616;DHT22;13482;48.234;13.006;2023-08-12T04:40:42;17.10;65.50
25616;DHT22;13482;48.234;13.006;2023-08-12T04:43:10;17.20;65.50
25616;DHT22;13482;48.234;13.006;2023-08-12T04:45:40;17.20;65.90
25616;DHT22;13482;48.234;13.006;2023-08-12T04:48:07;17.30;66.10
25616;DHT22;13482;48.234;13.006;2023-08-12T04:50:39;17.30;66.30
25616;DHT22;13482;48.234;13.006;2023-08-12T04:53:06;17.40;66.60
25616;DHT22;13482;48.234;13.006;2023-08-12T04:55:34;17.50;66.70
25616;DHT22;13482;48.234;13.006;2023-08-12T04:58:02;17.60;66.80
25616;DHT22;13482;48.234;13.006;2023-08-12T05:00:30;17.60;67.10
25616;DHT22;13482;48.234;13.006;2023-08-12T05:02:58;17.70;67.10
25616;DHT22;13482;48.234;13.006;2023-08-12T05:05:26;17.80;67.10
25616;DHT22;13482;48.234;13.006;2023-08-12T05:07:54;17.90;67.00
25616;DHT22;13482;48.234;13.006;2023-08-12T05:10:21;18.00;67.10
25616;DHT22;13482;48.234;13.006;2023-08-12T05:12:49;18.00;67.30
25616;DHT22;13482;48.234;13.006;2023-08-12T05:15:19;18.20;67.70
25616;DHT22;13482;48.234;13.006;2023-08-12T05:17:47;18.20;67.90
25616;DHT22;13482;48.234;13.006;2023-08-12T05:20:15;18.30;68.10
25616;DHT22;13482;48.234;13.006;2023-08-12T05:22:42;18.50;68.10
25616;DHT22;13482;48.234;13.006;2023-08-12T05:25:09;18.50;68.00
25616;DHT22;13482;48.234;13.006;2023-08-12T05:27:37;18.60;68.00
25616;DHT22;13482;48.234;13.006;2023-08-12T05:30:06;18.80;68.00
25616;DHT22;13482;48.234;13.006;2023-08-12T05:32:34;18.90;68.10
25616;DHT22;13482;48.234;13.006;2023-08-12T05:35:01;19.00;68.40
25616;DHT22;13482;48.234;13.006;2023-08-12T05:37:29;19.10;68.60
25616;DHT22;13482;48.234;13.006;2023-08-12T05:39:56;19.30;68.80
25616;DHT22;13482;48.234;13.006;2023-08-12T05:42:23;19.40;68.70
25616;DHT22;13482;48.234;13.006;2023-08-12T05:44:51;19.60;68.70
25616;DHT22;13482;48.234;13.006;2023-08-12T05:47:19;19.70;68.80
25616;DHT22;13482;48.234;13.006;2023-08-12T05:49:46;19.90;68.80
25616;DHT22;13482;48.234;13.006;2023-08-12T05:52:14;20.00;68.80
25616;DHT22;13482;48.234;13.006;2023-08-12T05:54:43;20.10;68.80
25616;DHT22;13482;48.234;13.006;2023-08-12T05:57:11;20.30;68.80
25616;DHT22;13482;48.234;13.006;2023-08-12T05:59:39;20.40;68.90
25616;DHT22;13482;48.234;13.006;2023-08-12T06:02:08;20.60;68.80
25616;DHT22;13482;48.234;13.006;2023-08-12T06:04:37;20.70;68.80
25616;DHT22;13482;48.234;13.006;2023-08-12T06:07:05;20.90;68.90
25616;DHT22;13482;48.234;13.006;2023-08-12T06:09:33;21.00;68.90
25616;DHT22;13482;48.234;13.006;2023-08-12T06:12:02;21.20;68.90
25616;DHT22;13482;48.234;13.006;2023-08-12T06:14:30;21.30;68.80
25616;DHT22;13482;48.234;13.006;2023-08-12T06:16:59;21.50;68.60
25616;DHT22;13482;48.234;13.006;2023-08-12T06:19:28;21.60;68.70
25616;DHT22;13482;48.234;13.006;2023-08-12T06:21:56;21.80;68.70
25616;DHT22;13482;48.234;13.006;2023-08-12T06:24:25;21.90;68.70
25616;DHT22;13482;48.234;13.006;2023-08-12T06:26:53;22.10;68.50
25616;DHT22;13482;48.234;13.006;2023-08-12T06:29:23;22.20;68.50
25616;DHT22;13482;48.234;13.006;2023-08-12T06:31:52;22.40;68.40
25616;DHT22;13482;48.234;13.006;2023-08-12T06:34:20;22.60;68.30
25616;DHT22;13482;48.234;13.006;2023-08-12T06:36:49;22.70;68.20
25616;DHT22;13482;48.234;13.006;2023-08-12T06:39:16;22.90;68.10
25616;DHT22;13482;48.234;13.006;2023-08-12T06:41:44;23.00;67.90
25616;DHT22;13482;48.234;13.006;2023-08-12T06:44:11;23.20;67.80
25616;DHT22;13482;48.234;13.006;2023-08-12T06:46:39;23.30;67.70
25616;DHT22;13482;48.234;13.006;2023-08-12T06:49:07;23.50;67.70
25616;DHT22;13482;48.234;13.006;2023-08-12T06:51:34;23.60;67.50
25616;DHT22;13482;48.234;13.006;2023-08-12T06:54:01;23.70;67.10
25616;DHT22;13482;48.234;13.006;2023-08-12T06:56:29;23.90;67.00
25616;DHT22;13482;48.234;13.006;2023-08-12T06:58:58;24.00;66.80
25616;DHT22;13482;48.234;13.006;2023-08-12T07:01:25;24.10;66.80
25616;DHT22;13482;48.234;13.006;2023-08-12T07:03:52;24.30;66.70
25616;DHT22;13482;48.234;13.006;2023-08-12T07:06:20;24.40;66.60
25616;DHT22;13482;48.234;13.006;2023-08-12T07:08:47;24.50;66.30
25616;DHT22;13482;48.234;13.006;2023-08-12T07:11:15;24.70;66.30
25616;DHT22;13482;48.234;13.006;2023-08-12T07:13:42;24.80;66.30
25616;DHT22;13482;48.234;13.006;2023-08-12T07:16:13;24.90;66.30
25616;DHT22;13482;48.234;13.006;2023-08-12T07:18:40;25.10;66.30
25616;DHT22;13482;48.234;13.006;2023-08-12T07:21:08;25.20;66.00
25616;DHT22;13482;48.234;13.006;2023-08-12T07:23:35;25.40;65.80
25616;DHT22;13482;48.234;13.006;2023-08-12T07:26:03;25.50;65.60
25616;DHT22;13482;48.234;13.006;2023-08-12T07:28:30;25.60;65.50
25616;DHT22;13482;48.234;13.006;2023-08-12T07:30:59;25.80;65.40
25616;DHT22;13482;48.234;13.006;2023-08-12T07:33:28;25.90;65.10
25616;DHT22;13482;48.234;13.006;2023-08-12T07:35:55;26.10;64.90
25616;DHT22;13482;48.234;13.006;2023-08-12T07:38:23;26.20;64.50
25616;DHT22;13482;48.234;13.006;2023-08-12T07:40:51;26.30;64.50
25616;DHT22;13482;48.234;13.006;2023-08-12T07:43:18;26.40;64.50
25616;DHT22;13482;48.234;13.006;2023-08-12T07:45:53;26.50;64.50
25616;DHT22;13482;48.234;13.006;2023-08-12T07:48:35;26.70;64.30
25616;DHT22;13482;48.234;13.006;2023-08-12T07:51:03;26.80;64.20
25616;DHT22;13482;48.234;13.006;2023-08-12T07:53:30;26.90;64.10
25616;DHT22;13482;48.234;13.006;2023-08-12T07:55:58;27.10;63.90
25616;DHT22;13482;48.234;13.006;2023-08-12T07:58:25;27.20;64.00
25616;DHT22;13482;48.234;13.006;2023-08-12T08:00:53;27.30;64.00
25616;DHT22;13482;48.234;13.006;2023-08-12T08:03:21;27.50;63.90
25616;DHT22;13482;48.234;13.006;2023-08-12T08:05:48;27.60;63.80
25616;DHT22;13482;48.234;13.006;2023-08-12T08:08:16;27.80;63.60
25616;DHT22;13482;48.234;13.006;2023-08-12T08:10:43;28.00;63.40
25616;DHT22;13482;48.234;13.006;2023-08-12T08:13:10;28.10;63.40
25616;DHT22;13482;48.234;13.006;2023-08-12T08:15:38;28.20;63.20
25616;DHT22;13482;48.234;13.006;2023-08-12T08:18:05;28.40;63.10
25616;DHT22;13482;48.234;13.006;2023-08-12T08:20:34;28.50;62.80
25616;DHT22;13482;48.234;13.006;2023-08-12T08:23:02;28.70;62.60
25616;DHT22;13482;48.234;13.006;2023-08-12T08:25:30;28.80;62.20
25616;DHT22;13482;48.234;13.006;2023-08-12T08:27:57;28.90;61.90
25616;DHT22;13482;48.234;13.006;2023-08-12T08:30:25;29.10;61.80
25616;DHT22;13482;48.234;13.006;2023-08-12T08:32:53;29.20;61.70
25616;DHT22;13482;48.234;13.006;2023-08-12T08:35:21;29.30;61.50
25616;DHT22;13482;48.234;13.006;2023-08-12T08:37:48;29.40;61.60
25616;DHT22;13482;48.234;13.006;2023-08-12T08:40:16;29.50;61.70
25616;DHT22;13482;48.234;13.006;2023-08-12T08:42:51;29.60;61.50
25616;DHT22;13482;48.234;13.006;2023-08-12T08:45:22;29.80;61.00
25616;DHT22;13482;48.234;13.006;2023-08-12T08:47:52;29.90;61.00
25616;DHT22;13482;48.234;13.006;2023-08-12T08:50:21;30.00;60.70
25616;DHT22;13482;48.234;13.006;2023-08-12T08:52:50;30.10;60.50
25616;DHT22;13482;48.234;13.006;2023-08-12T08:55:18;30.20;60.60
25616;DHT22;13482;48.234;13.006;2023-08-12T08:57:49;30.30;60.40
25616;DHT22;13482;48.234;13.006;2023-08-12T09:00:18;30.40;60.00
25616;DHT22;13482;48.234;13.006;2023-08-12T09:02:47;30.50;59.90
25616;DHT22;13482;48.234;13.006;2023-08-12T09:05:19;30.60;59.90
25616;DHT22;13482;48.234;13.006;2023-08-12T09:07:49;30.70;59.80
25616;DHT22;13482;48.234;13.006;2023-08-12T09:10:18;30.80;59.90
25616;DHT22;13482;48.234;13.006;2023-08-12T09:12:48;30.90;59.80
25616;DHT22;13482;48.234;13.006;2023-08-12T09:15:16;31.10;59.80
25616;DHT22;13482;48.234;13.006;2023-08-12T09:17:44;31.20;59.70
25616;DHT22;13482;48.234;13.006;2023-08-12T09:20:12;31.30;59.20
25616;DHT22;13482;48.234;13.006;2023-08-12T09:22:41;31.40;59.30
25616;DHT22;13482;48.234;13.006;2023-08-12T09:25:10;31.50;59.40
25616;DHT22;13482;48.234;13.006;2023-08-12T09:27:37;31.70;59.20
25616;DHT22;13482;48.234;13.006;2023-08-12T09:30:06;31.80;59.00
25616;DHT22;13482;48.234;13.006;2023-08-12T09:32:35;31.90;58.80
25616;DHT22;13482;48.234;13.006;2023-08-12T09:35:07;32.00;58.50
25616;DHT22;13482;48.234;13.006;2023-08-12T09:37:43;32.10;58.50
25616;DHT22;13482;48.234;13.006;2023-08-12T09:40:12;32.30;58.40
25616;DHT22;13482;48.234;13.006;2023-08-12T09:42:45;32.40;58.30
25616;DHT22;13482;48.234;13.006;2023-08-12T09:45:14;32.50;57.70
25616;DHT22;13482;48.234;13.006;2023-08-12T09:47:44;32.60;58.00
25616;DHT22;13482;48.234;13.006;2023-08-12T09:50:12;32.70;57.70
25616;DHT22;13482;48.234;13.006;2023-08-12T09:52:40;32.80;57.60
25616;DHT22;13482;48.234;13.006;2023-08-12T09:55:11;32.90;57.20
25616;DHT22;13482;48.234;13.006;2023-08-12T09:57:41;33.00;57.00
25616;DHT22;13482;48.234;13.006;2023-08-12T10:00:11;33.10;56.90
25616;DHT22;13482;48.234;13.006;2023-08-12T10:02:48;33.20;56.80
25616;DHT22;13482;48.234;13.006;2023-08-12T10:05:19;33.40;56.40
25616;DHT22;13482;48.234;13.006;2023-08-12T10:07:49;33.40;56.60
25616;DHT22;13482;48.234;13.006;2023-08-12T10:10:17;33.60;56.30
25616;DHT22;13482;48.234;13.006;2023-08-12T10:12:45;33.60;56.00
25616;DHT22;13482;48.234;13.006;2023-08-12T10:15:14;33.70;56.20
25616;DHT22;13482;48.234;13.006;2023-08-12T10:17:43;33.80;55.90
25616;DHT22;13482;48.234;13.006;2023-08-12T10:20:21;33.90;55.50
25616;DHT22;13482;48.234;13.006;2023-08-12T10:22:51;34.00;54.60
25616;DHT22;13482;48.234;13.006;2023-08-12T10:25:19;34.00;55.20
25616;DHT22;13482;48.234;13.006;2023-08-12T10:27:51;34.10;55.10
25616;DHT22;13482;48.234;13.006;2023-08-12T10:30:20;34.10;55.20
25616;DHT22;13482;48.234;13.006;2023-08-12T10:32:48;34.20;54.80
25616;DHT22;13482;48.234;13.006;2023-08-12T10:35:16;34.20;54.60
25616;DHT22;13482;48.234;13.006;2023-08-12T10:37:50;34.30;54.40
25616;DHT22;13482;48.234;13.006;2023-08-12T10:40:22;34.30;53.70
25616;DHT22;13482;48.234;13.006;2023-08-12T10:42:50;34.40;53.70
25616;DHT22;13482;48.234;13.006;2023-08-12T10:45:18;34.40;53.90
25616;DHT22;13482;48.234;13.006;2023-08-12T10:50:26;34.50;53.10
25616;DHT22;13482;48.234;13.006;2023-08-12T10:52:54;34.60;53.60
25616;DHT22;13482;48.234;13.006;2023-08-12T10:55:24;34.60;53.50
25616;DHT22;13482;48.234;13.006;2023-08-12T10:57:54;34.70;53.30
25616;DHT22;13482;48.234;13.006;2023-08-12T11:00:29;34.70;53.30
25616;DHT22;13482;48.234;13.006;2023-08-12T11:02:57;34.80;53.10
25616;DHT22;13482;48.234;13.006;2023-08-12T11:05:36;34.80;53.30
25616;DHT22;13482;48.234;13.006;2023-08-12T11:08:05;34.80;52.60
25616;DHT22;13482;48.234;13.006;2023-08-12T11:10:34;34.90;53.40
25616;DHT22;13482;48.234;13.006;2023-08-12T11:13:03;35.00;53.50
25616;DHT22;13482;48.234;13.006;2023-08-12T11:15:42;35.10;53.50
25616;DHT22;13482;48.234;13.006;2023-08-12T11:18:16;35.20;53.00
25616;DHT22;13482;48.234;13.006;2023-08-12T11:20:46;35.30;53.30
25616;DHT22;13482;48.234;13.006;2023-08-12T11:23:17;35.40;53.10
25616;DHT22;13482;48.234;13.006;2023-08-12T11:25:45;35.50;52.90
25616;DHT22;13482;48.234;13.006;2023-08-12T11:28:12;35.60;52.70
25616;DHT22;13482;48.234;13.006;2023-08-12T11:30:41;35.70;52.50
25616;DHT22;13482;48.234;13.006;2023-08-12T11:33:10;35.80;52.30
25616;DHT22;13482;48.234;13.006;2023-08-12T11:35:38;35.90;52.10
25616;DHT22;13482;48.234;13.006;2023-08-12T11:38:06;36.00;52.10
25616;DHT22;13482;48.234;13.006;2023-08-12T11:40:34;36.10;52.20
25616;DHT22;13482;48.234;13.006;2023-08-12T11:43:03;36.20;52.20
25616;DHT22;13482;48.234;13.006;2023-08-12T11:45:33;36.20;52.00
25616;DHT22;13482;48.234;13.006;2023-08-12T11:48:00;36.30;51.90
25616;DHT22;13482;48.234;13.006;2023-08-12T11:50:28;36.40;51.90
25616;DHT22;13482;48.234;13.006;2023-08-12T11:52:56;36.50;51.60
25616;DHT22;13482;48.234;13.006;2023-08-12T11:55:25;36.50;51.50
25616;DHT22;13482;48.234;13.006;2023-08-12T11:57:53;36.60;51.20
25616;DHT22;13482;48.234;13.006;2023-08-12T12:00:20;36.60;50.90
25616;DHT22;13482;48.234;13.006;2023-08-12T12:02:55;36.60;50.90
25616;DHT22;13482;48.234;13.006;2023-08-12T12:05:28;36.70;50.70
25616;DHT22;13482;48.234;13.006;2023-08-12T12:08:01;36.70;50.50
25616;DHT22;13482;48.234;13.006;2023-08-12T12:10:31;36.80;50.70
25616;DHT22;13482;48.234;13.006;2023-08-12T12:13:03;36.80;50.20
25616;DHT22;13482;48.234;13.006;2023-08-12T12:15:42;36.80;50.20
25616;DHT22;13482;48.234;13.006;2023-08-12T12:18:13;36.80;49.90
25616;DHT22;13482;48.234;13.006;2023-08-12T12:23:29;36.90;49.30
25616;DHT22;13482;48.234;13.006;2023-08-12T12:26:01;36.90;50.30
25616;DHT22;13482;48.234;13.006;2023-08-12T12:28:30;36.90;50.40
25616;DHT22;13482;48.234;13.006;2023-08-12T12:30:58;36.90;50.50
25616;DHT22;13482;48.234;13.006;2023-08-12T12:33:25;37.00;50.40
25616;DHT22;13482;48.234;13.006;2023-08-12T12:35:53;37.00;50.30
25616;DHT22;13482;48.234;13.006;2023-08-12T12:38:27;37.10;50.20
25616;DHT22;13482;48.234;13.006;2023-08-12T12:40:54;37.10;50.50
25616;DHT22;13482;48.234;13.006;2023-08-12T12:43:22;37.20;50.20
25616;DHT22;13482;48.234;13.006;2023-08-12T12:45:49;37.30;50.30
25616;DHT22;13482;48.234;13.006;2023-08-12T12:48:17;37.40;50.40
25616;DHT22;13482;48.234;13.006;2023-08-12T12:50:44;37.50;50.30
25616;DHT22;13482;48.234;13.006;2023-08-12T12:53:11;37.60;50.40
25616;DHT22;13482;48.234;13.006;2023-08-12T12:55:39;37.70;50.20
25616;DHT22;13482;48.234;13.006;2023-08-12T12:58:06;37.80;50.30
25616;DHT22;13482;48.234;13.006;2023-08-12T13:00:38;37.80;50.00
25616;DHT22;13482;48.234;13.006;2023-08-12T13:03:05;37.90;50.00
25616;DHT22;13482;48.234;13.006;2023-08-12T13:05:33;38.00;49.70
25616;DHT22;13482;48.234;13.006;2023-08-12T13:08:00;38.10;49.40
25616;DHT22;13482;48.234;13.006;2023-08-12T13:10:28;38.20;49.20
25616;DHT22;13482;48.234;13.006;2023-08-12T13:12:55;38.20;49.30
25616;DHT22;13482;48.234;13.006;2023-08-12T13:15:24;38.30;49.10
25616;DHT22;13482;48.234;13.006;2023-08-12T13:17:53;38.30;49.00
25616;DHT22;13482;48.234;13.006;2023-08-12T13:20:21;38.30;49.00
25616;DHT22;13482;48.234;13.006;2023-08-12T13:22:49;38.30;49.00
25616;DHT22;13482;48.234;13.006;2023-08-12T13:25:17;38.30;49.10
25616;DHT22;13482;48.234;13.006;2023-08-12T13:27:44;38.40;48.90
25616;DHT22;13482;48.234;13.006;2023-08-12T13:30:12;38.40;48.90
25616;DHT22;13482;48.234;13.006;2023-08-12T13:32:39;38.40;48.80
25616;DHT22;13482;48.234;13.006;2023-08-12T13:35:07;38.40;48.70
25616;DHT22;13482;48.234;13.006;2023-08-12T13:37:35;38.40;49.00
25616;DHT22;13482;48.234;13.006;2023-08-12T13:40:02;38.40;48.80
25616;DHT22;13482;48.234;13.006;2023-08-12T13:42:30;38.50;48.40
25616;DHT22;13482;48.234;13.006;2023-08-12T13:44:57;38.50;48.20
25616;DHT22;13482;48.234;13.006;2023-08-12T13:47:27;38.50;48.20
25616;DHT22;13482;48.234;13.006;2023-08-12T13:49:54;38.40;47.80
25616;DHT22;13482;48.234;13.006;2023-08-12T13:52:22;38.40;48.10
25616;DHT22;13482;48.234;13.006;2023-08-12T13:54:50;38.40;48.20
25616;DHT22;13482;48.234;13.006;2023-08-12T13:57:17;38.40;48.30
25616;DHT22;13482;48.234;13.006;2023-08-12T13:59:45;38.40;48.50
25616;DHT22;13482;48.234;13.006;2023-08-12T14:02:15;38.40;48.20
25616;DHT22;13482;48.234;13.006;2023-08-12T14:04:42;38.40;48.00
25616;DHT22;13482;48.234;13.006;2023-08-12T14:07:10;38.50;48.00
25616;DHT22;13482;48.234;13.006;2023-08-12T14:09:38;38.50;47.70
25616;DHT22;13482;48.234;13.006;2023-08-12T14:12:06;38.50;47.50
25616;DHT22;13482;48.234;13.006;2023-08-12T14:14:33;38.50;47.40
25616;DHT22;13482;48.234;13.006;2023-08-12T14:17:01;38.50;47.30
25616;DHT22;13482;48.234;13.006;2023-08-12T14:19:28;38.50;47.40
25616;DHT22;13482;48.234;13.006;2023-08-12T14:21:56;38.50;47.70
25616;DHT22;13482;48.234;13.006;2023-08-12T14:24:23;38.50;47.80
25616;DHT22;13482;48.234;13.006;2023-08-12T14:26:51;38.60;47.70
25616;DHT22;13482;48.234;13.006;2023-08-12T14:29:19;38.60;47.90
25616;DHT22;13482;48.234;13.006;2023-08-12T14:31:46;38.70;47.90
25616;DHT22;13482;48.234;13.006;2023-08-12T14:34:13;38.80;47.30
25616;DHT22;13482;48.234;13.006;2023-08-12T14:36:41;38.80;47.60
25616;DHT22;13482;48.234;13.006;2023-08-12T14:39:08;38.80;46.90
25616;DHT22;13482;48.234;13.006;2023-08-12T14:41:36;38.80;46.80
25616;DHT22;13482;48.234;13.006;2023-08-12T14:44:03;38.80;46.90
25616;DHT22;13482;48.234;13.006;2023-08-12T14:46:31;38.70;46.90
25616;DHT22;13482;48.234;13.006;2023-08-12T14:48:58;38.70;46.90
25616;DHT22;13482;48.234;13.006;2023-08-12T14:51:27;38.70;47.20
25616;DHT22;13482;48.234;13.006;2023-08-12T14:53:56;38.70;47.50
25616;DHT22;13482;48.234;13.006;2023-08-12T14:56:24;38.80;47.40
25616;DHT22;13482;48.234;13.006;2023-08-12T14:58:51;38.80;47.40
25616;DHT22;13482;48.234;13.006;2023-08-12T15:01:18;38.90;46.90
25616;DHT22;13482;48.234;13.006;2023-08-12T15:03:46;39.00;46.70
25616;DHT22;13482;48.234;13.006;2023-08-12T15:06:14;39.00;46.40
25616;DHT22;13482;48.234;13.006;2023-08-12T15:08:41;39.00;46.20
25616;DHT22;13482;48.234;13.006;2023-08-12T15:11:08;39.00;46.10
25616;DHT22;13482;48.234;13.006;2023-08-12T15:13:36;39.00;46.10
25616;DHT22;13482;48.234;13.006;2023-08-12T15:16:04;38.90;46.30
25616;DHT22;13482;48.234;13.006;2023-08-12T15:18:32;39.00;46.40
25616;DHT22;13482;48.234;13.006;2023-08-12T15:20:59;39.00;46.50
25616;DHT22;13482;48.234;13.006;2023-08-12T15:23:26;39.10;46.50
25616;DHT22;13482;48.234;13.006;2023-08-12T15:25:54;39.20;46.20
25616;DHT22;13482;48.234;13.006;2023-08-12T15:28:21;39.20;46.00